createdAt,value
2019-05-02T00:00:10.911Z,0.00
2019-05-02T00:01:11.110Z,0.00
2019-05-02T00:02:10.898Z,0.00
2019-05-02T00:03:10.877Z,0.00
2019-05-02T00:04:12.390Z,0.00
2019-05-02T00:05:11.855Z,0.00
2019-05-02T00:06:10.853Z,0.00
2019-05-02T00:07:14.553Z,0.00
2019-05-02T00:08:11.817Z,0.00
2019-05-02T00:09:11.193Z,0.00
2019-05-02T00:10:10.795Z,0.00
2019-05-02T00:11:10.788Z,0.00
2019-05-02T00:12:10.773Z,0.00
2019-05-02T00:13:10.846Z,0.00
2019-05-02T00:14:10.776Z,0.00
2019-05-02T00:15:10.738Z,0.00
2019-05-02T00:16:14.195Z,0.00
2019-05-02T00:17:10.730Z,0.00
2019-05-02T00:18:10.704Z,0.00
2019-05-02T00:19:14.001Z,0.00
2019-05-02T00:20:10.679Z,0.00
2019-05-02T00:21:10.666Z,0.00
2019-05-02T00:22:12.218Z,0.00
2019-05-02T00:23:11.643Z,0.00
2019-05-02T00:24:10.633Z,0.00
2019-05-02T00:25:11.165Z,0.00
2019-05-02T00:26:10.609Z,0.00
2019-05-02T00:27:10.599Z,0.00
2019-05-02T00:28:12.379Z,0.00
2019-05-02T00:29:10.573Z,0.00
2019-05-02T00:30:10.570Z,0.00
2019-05-02T00:31:11.631Z,0.00
2019-05-02T00:32:10.537Z,0.00
2019-05-02T00:33:10.620Z,0.00
2019-05-02T00:34:10.516Z,0.00
2019-05-02T00:35:10.502Z,0.00
2019-05-02T00:36:10.494Z,0.00
2019-05-02T00:37:10.545Z,0.00
2019-05-02T00:38:10.469Z,0.00
2019-05-02T00:39:13.882Z,0.00
2019-05-02T00:40:10.454Z,0.00
2019-05-02T00:41:10.437Z,0.00
2019-05-02T00:42:12.763Z,0.00
2019-05-02T00:43:10.485Z,0.00
2019-05-02T00:44:11.035Z,0.00
2019-05-02T00:45:10.390Z,0.00
2019-05-02T00:46:10.379Z,0.00
2019-05-02T00:47:10.904Z,0.00
2019-05-02T00:48:10.355Z,0.00
2019-05-02T00:49:10.555Z,0.00
2019-05-02T00:50:11.392Z,0.00
2019-05-02T00:51:10.328Z,0.00
2019-05-02T00:52:10.309Z,0.00
2019-05-02T00:53:12.022Z,0.00
2019-05-02T00:54:10.286Z,0.00
2019-05-02T00:55:10.486Z,0.00
2019-05-02T00:56:10.427Z,0.00
2019-05-02T00:57:10.252Z,0.00
2019-05-02T00:58:10.241Z,0.00
2019-05-02T00:59:10.228Z,0.00
2019-05-02T01:00:13.336Z,0.00
2019-05-02T01:01:11.271Z,0.00
2019-05-02T01:02:10.194Z,0.00
2019-05-02T01:03:11.241Z,0.00
2019-05-02T01:04:11.183Z,0.00
2019-05-02T01:05:10.165Z,0.00
2019-05-02T01:06:14.428Z,0.00
2019-05-02T01:07:11.341Z,0.00
2019-05-02T01:08:10.125Z,0.00
2019-05-02T01:09:11.156Z,0.00
2019-05-02T01:10:10.104Z,0.00
2019-05-02T01:11:10.091Z,0.00
2019-05-02T01:12:10.092Z,0.00
2019-05-02T01:13:10.129Z,0.00
2019-05-02T01:14:10.058Z,0.00
2019-05-02T01:15:10.056Z,0.00
2019-05-02T01:16:10.039Z,0.00
2019-05-02T01:17:10.024Z,0.00
2019-05-02T01:18:10.012Z,0.00
2019-05-02T01:19:12.199Z,0.00
2019-05-02T01:20:10.992Z,0.00
2019-05-02T01:21:09.980Z,0.00
2019-05-02T01:22:10.548Z,0.00
2019-05-02T01:23:10.971Z,0.00
2019-05-02T01:24:09.945Z,0.00
2019-05-02T01:25:15.341Z,0.00
2019-05-02T01:26:10.926Z,0.00
2019-05-02T01:27:09.912Z,0.00
2019-05-02T01:28:12.615Z,0.00
2019-05-02T01:29:10.897Z,0.00
2019-05-02T01:30:09.881Z,0.00
2019-05-02T01:31:13.112Z,0.00
2019-05-02T01:32:10.855Z,0.00
2019-05-02T01:33:09.846Z,0.00
2019-05-02T01:34:13.100Z,0.00
2019-05-02T01:35:10.822Z,0.00
2019-05-02T01:36:09.811Z,0.00
2019-05-02T01:37:11.941Z,0.00
2019-05-02T01:38:10.789Z,0.00
2019-05-02T01:39:09.785Z,0.00
2019-05-02T01:40:13.043Z,0.00
2019-05-02T01:41:10.762Z,0.00
2019-05-02T01:42:09.743Z,0.00
2019-05-02T01:43:09.804Z,0.00
2019-05-02T01:44:09.725Z,0.00
2019-05-02T01:45:11.136Z,0.00
2019-05-02T01:46:09.699Z,0.00
2019-05-02T01:47:09.688Z,0.00
2019-05-02T01:48:10.922Z,0.00
2019-05-02T01:49:09.725Z,0.00
2019-05-02T01:50:09.651Z,0.00
2019-05-02T01:51:11.977Z,0.00
2019-05-02T01:52:09.629Z,0.00
2019-05-02T01:53:09.618Z,0.00
2019-05-02T01:54:11.259Z,0.00
2019-05-02T01:55:09.668Z,0.00
2019-05-02T01:56:09.581Z,0.00
2019-05-02T01:57:10.046Z,0.00
2019-05-02T01:58:09.573Z,0.00
2019-05-02T01:59:09.564Z,0.00
2019-05-02T02:00:11.433Z,0.00
2019-05-02T02:01:09.606Z,0.00
2019-05-02T02:02:09.529Z,0.00
2019-05-02T02:03:10.396Z,0.00
2019-05-02T02:04:09.504Z,0.00
2019-05-02T02:05:09.493Z,0.00
2019-05-02T02:06:10.159Z,0.00
2019-05-02T02:07:09.534Z,0.00
2019-05-02T02:08:09.466Z,0.00
2019-05-02T02:09:09.896Z,0.00
2019-05-02T02:10:09.436Z,0.00
2019-05-02T02:11:09.427Z,0.00
2019-05-02T02:12:11.280Z,0.00
2019-05-02T02:13:09.468Z,0.00
2019-05-02T02:14:13.058Z,0.00
2019-05-02T02:15:10.377Z,0.00
2019-05-02T02:16:09.386Z,0.00
2019-05-02T02:17:10.176Z,0.00
2019-05-02T02:18:10.408Z,0.00
2019-05-02T02:19:09.341Z,0.00
2019-05-02T02:20:09.758Z,0.00
2019-05-02T02:21:09.313Z,0.00
2019-05-02T02:22:09.302Z,0.00
2019-05-02T02:23:10.164Z,0.00
2019-05-02T02:24:09.345Z,0.00
2019-05-02T02:25:09.270Z,0.00
2019-05-02T02:26:12.024Z,0.00
2019-05-02T02:27:09.250Z,0.00
2019-05-02T02:28:09.233Z,0.00
2019-05-02T02:29:09.367Z,0.00
2019-05-02T02:30:09.282Z,0.00
2019-05-02T02:31:09.220Z,0.00
2019-05-02T02:32:09.189Z,0.00
2019-05-02T02:33:09.820Z,0.00
2019-05-02T02:34:09.169Z,0.00
2019-05-02T02:35:10.097Z,0.00
2019-05-02T02:36:09.213Z,0.00
2019-05-02T02:37:13.139Z,0.00
2019-05-02T02:38:10.122Z,0.00
2019-05-02T02:39:14.555Z,0.00
2019-05-02T02:40:10.099Z,0.00
2019-05-02T02:41:13.307Z,0.00
2019-05-02T02:42:10.293Z,0.00
2019-05-02T02:43:30.007Z,0.00
2019-05-02T02:44:10.061Z,0.00
2019-05-02T02:45:13.020Z,0.00
2019-05-02T02:46:10.029Z,0.00
2019-05-02T02:47:11.819Z,0.00
2019-05-02T02:48:10.217Z,0.00
2019-05-02T02:49:14.007Z,0.00
2019-05-02T02:50:10.001Z,0.00
2019-05-02T02:51:08.975Z,0.00
2019-05-02T02:52:08.964Z,0.00
2019-05-02T02:53:08.951Z,0.00
2019-05-02T02:54:09.151Z,0.00
2019-05-02T02:55:08.953Z,0.00
2019-05-02T02:56:08.921Z,0.00
2019-05-02T02:57:20.538Z,0.00
2019-05-02T02:58:09.895Z,0.00
2019-05-02T02:59:08.885Z,0.00
2019-05-02T03:00:11.048Z,0.00
2019-05-02T03:01:08.865Z,0.00
2019-05-02T03:02:11.733Z,0.00
2019-05-02T03:03:08.875Z,0.00
2019-05-02T03:04:11.784Z,0.00
2019-05-02T03:05:08.823Z,0.00
2019-05-02T03:06:08.879Z,0.00
2019-05-02T03:07:08.792Z,0.00
2019-05-02T03:08:08.781Z,0.00
2019-05-02T03:09:08.787Z,0.00
2019-05-02T03:10:08.809Z,0.00
2019-05-02T03:11:08.746Z,0.00
2019-05-02T03:12:08.948Z,0.00
2019-05-02T03:13:14.797Z,0.00
2019-05-02T03:14:09.950Z,0.00
2019-05-02T03:15:08.705Z,0.00
2019-05-02T03:16:09.399Z,0.00
2019-05-02T03:17:08.679Z,0.00
2019-05-02T03:18:08.877Z,0.00
2019-05-02T03:19:14.459Z,0.00
2019-05-02T03:20:09.655Z,0.00
2019-05-02T03:21:13.496Z,0.00
2019-05-02T03:22:09.622Z,0.00
2019-05-02T03:23:08.844Z,0.00
2019-05-02T03:24:09.678Z,0.00
2019-05-02T03:25:08.589Z,0.00
2019-05-02T03:26:14.959Z,0.00
2019-05-02T03:27:09.567Z,0.00
2019-05-02T03:28:17.850Z,0.00
2019-05-02T03:29:09.542Z,0.00
2019-05-02T03:30:08.601Z,0.00
2019-05-02T03:31:23.919Z,0.00
2019-05-02T03:32:16.063Z,0.00
2019-05-02T03:33:11.845Z,0.00
2019-05-02T03:34:08.485Z,0.00
2019-05-02T03:35:08.479Z,0.00
2019-05-02T03:36:26.284Z,0.00
2019-05-02T03:37:10.852Z,5.62
2019-05-02T03:38:08.443Z,5.62
2019-05-02T03:39:15.059Z,5.62
2019-05-02T03:40:09.430Z,5.62
2019-05-02T03:41:13.258Z,5.62
2019-05-02T03:42:09.614Z,5.62
2019-05-02T03:43:08.386Z,11.25
2019-05-02T03:44:11.601Z,11.25
2019-05-02T03:45:09.368Z,11.25
2019-05-02T03:46:13.664Z,11.25
2019-05-02T03:47:09.333Z,16.88
2019-05-02T03:48:08.386Z,16.88
2019-05-02T03:49:09.661Z,16.88
2019-05-02T03:50:09.553Z,22.50
2019-05-02T03:51:19.821Z,22.50
2019-05-02T03:52:09.277Z,28.12
2019-05-02T03:53:08.269Z,28.12
2019-05-02T03:54:10.379Z,28.12
2019-05-02T03:55:08.245Z,33.75
2019-05-02T03:56:11.366Z,33.75
2019-05-02T03:57:09.218Z,39.38
2019-05-02T03:58:14.008Z,39.38
2019-05-02T03:59:09.262Z,45.00
2019-05-02T04:00:13.932Z,45.00
2019-05-02T04:01:09.173Z,50.62
2019-05-02T04:02:14.062Z,50.62
2019-05-02T04:03:09.148Z,56.25
2019-05-02T04:04:08.138Z,56.25
2019-05-02T04:05:08.203Z,61.88
2019-05-02T04:06:14.103Z,61.88
2019-05-02T04:07:09.123Z,67.50
2019-05-02T04:08:19.874Z,73.12
2019-05-02T04:09:09.082Z,73.12
2019-05-02T04:10:13.423Z,78.75
2019-05-02T04:11:09.120Z,84.38
2019-05-02T04:12:17.822Z,84.38
2019-05-02T04:13:09.035Z,90.00
2019-05-02T04:14:15.153Z,95.62
2019-05-02T04:15:09.767Z,95.62
2019-05-02T04:16:14.655Z,101.25
2019-05-02T04:17:09.223Z,101.25
2019-05-02T04:18:08.425Z,106.88
2019-05-02T04:19:08.968Z,106.88
2019-05-02T04:20:10.181Z,106.88
2019-05-02T04:21:07.942Z,112.50
2019-05-02T04:22:11.339Z,112.50
2019-05-02T04:23:07.984Z,112.50
2019-05-02T04:24:13.716Z,106.88
2019-05-02T04:25:08.899Z,106.88
2019-05-02T04:26:12.684Z,106.88
2019-05-02T04:27:08.877Z,106.88
2019-05-02T04:28:12.071Z,101.25
2019-05-02T04:29:08.915Z,106.88
2019-05-02T04:30:11.251Z,101.25
2019-05-02T04:31:08.828Z,101.25
2019-05-02T04:32:11.464Z,106.88
2019-05-02T04:33:08.803Z,106.88
2019-05-02T04:34:15.796Z,106.88
2019-05-02T04:35:08.847Z,101.25
2019-05-02T04:36:15.188Z,106.88
2019-05-02T04:37:08.762Z,123.75
2019-05-02T04:38:19.011Z,129.38
2019-05-02T04:39:15.161Z,123.75
2019-05-02T04:40:12.192Z,140.62
2019-05-02T04:41:09.314Z,146.25
2019-05-02T04:42:12.971Z,151.88
2019-05-02T04:43:11.432Z,151.88
2019-05-02T04:44:09.055Z,146.25
2019-05-02T04:45:24.133Z,157.50
2019-05-02T04:46:18.079Z,168.75
2019-05-02T04:47:16.560Z,174.38
2019-05-02T04:48:08.695Z,185.62
2019-05-02T04:49:09.220Z,185.62
2019-05-02T04:50:17.637Z,191.25
2019-05-02T04:51:14.211Z,208.12
2019-05-02T04:52:12.443Z,213.75
2019-05-02T04:53:08.764Z,219.38
2019-05-02T04:54:09.203Z,230.62
2019-05-02T04:55:19.716Z,247.50
2019-05-02T04:56:10.678Z,247.50
2019-05-02T04:57:08.413Z,247.50
2019-05-02T04:58:08.340Z,258.75
2019-05-02T04:59:13.818Z,247.50
2019-05-02T05:00:11.801Z,264.38
2019-05-02T05:01:09.888Z,270.00
2019-05-02T05:02:09.094Z,258.75
2019-05-02T05:03:15.656Z,258.75
2019-05-02T05:04:08.517Z,270.00
2019-05-02T05:05:08.221Z,264.38
2019-05-02T05:06:12.262Z,258.75
2019-05-02T05:07:09.279Z,275.62
2019-05-02T05:08:07.882Z,292.50
2019-05-02T05:09:12.681Z,298.12
2019-05-02T05:10:08.590Z,331.88
2019-05-02T05:11:07.825Z,309.38
2019-05-02T05:12:07.362Z,303.75
2019-05-02T05:13:07.789Z,292.50
2019-05-02T05:14:09.932Z,298.12
2019-05-02T05:15:07.836Z,315.00
2019-05-02T05:16:11.157Z,337.50
2019-05-02T05:17:08.306Z,298.12
2019-05-02T05:18:10.503Z,309.38
2019-05-02T05:19:08.275Z,320.62
2019-05-02T05:20:13.690Z,320.62
2019-05-02T05:21:10.660Z,337.50
2019-05-02T05:22:11.690Z,337.50
2019-05-02T05:23:08.238Z,348.75
2019-05-02T05:24:07.720Z,360.00
2019-05-02T05:25:07.579Z,360.00
2019-05-02T05:26:07.444Z,371.25
2019-05-02T05:27:08.244Z,399.38
2019-05-02T05:28:09.103Z,405.00
2019-05-02T05:29:08.252Z,410.62
2019-05-02T05:30:11.232Z,416.25
2019-05-02T05:31:08.141Z,427.50
2019-05-02T05:32:09.891Z,421.88
2019-05-02T05:33:10.057Z,421.88
2019-05-02T05:34:07.790Z,450.00
2019-05-02T05:35:09.106Z,444.38
2019-05-02T05:36:08.408Z,478.12
2019-05-02T05:37:11.647Z,461.25
2019-05-02T05:38:08.269Z,444.38
2019-05-02T05:39:08.631Z,461.25
2019-05-02T05:40:08.399Z,466.88
2019-05-02T05:41:09.007Z,433.12
2019-05-02T05:42:10.575Z,483.75
2019-05-02T05:43:13.715Z,545.62
2019-05-02T05:44:08.059Z,500.62
2019-05-02T05:45:09.846Z,489.38
2019-05-02T05:46:10.668Z,495.00
2019-05-02T05:47:07.397Z,495.00
2019-05-02T05:48:08.280Z,528.75
2019-05-02T05:49:10.498Z,534.38
2019-05-02T05:50:08.369Z,478.12
2019-05-02T05:51:07.368Z,500.62
2019-05-02T05:52:08.039Z,579.38
2019-05-02T05:53:07.903Z,495.00
2019-05-02T05:54:07.739Z,455.62
2019-05-02T05:55:07.840Z,472.50
2019-05-02T05:56:07.995Z,528.75
2019-05-02T05:57:07.597Z,838.12
2019-05-02T05:58:13.161Z,849.38
2019-05-02T05:59:07.961Z,798.75
2019-05-02T06:00:11.845Z,911.25
2019-05-02T06:01:10.296Z,888.75
2019-05-02T06:02:13.242Z,843.75
2019-05-02T06:03:14.075Z,1001.25
2019-05-02T06:04:08.114Z,793.12
2019-05-02T06:05:07.919Z,1040.62
2019-05-02T06:06:08.254Z,1051.88
2019-05-02T06:07:07.338Z,1068.75
2019-05-02T06:08:08.153Z,1125.00
2019-05-02T06:09:06.704Z,1181.25
2019-05-02T06:10:07.839Z,1209.38
2019-05-02T06:11:06.685Z,1237.50
2019-05-02T06:12:06.686Z,1209.38
2019-05-02T06:13:11.009Z,1198.12
2019-05-02T06:14:07.645Z,1181.25
2019-05-02T06:15:06.636Z,1158.75
2019-05-02T06:16:10.501Z,1260.00
2019-05-02T06:17:07.614Z,1237.50
2019-05-02T06:18:06.600Z,1113.75
2019-05-02T06:19:06.665Z,1170.00
2019-05-02T06:20:06.578Z,1130.62
2019-05-02T06:21:08.702Z,1220.62
2019-05-02T06:22:06.562Z,1569.38
2019-05-02T06:23:06.553Z,1344.38
2019-05-02T06:24:06.550Z,1074.38
2019-05-02T06:25:09.525Z,765.00
2019-05-02T06:26:12.707Z,1321.88
2019-05-02T06:27:07.500Z,1327.50
2019-05-02T06:28:06.848Z,939.38
2019-05-02T06:29:06.478Z,1389.38
2019-05-02T06:30:06.466Z,984.38
2019-05-02T06:31:07.238Z,1395.00
2019-05-02T06:32:06.440Z,798.75
2019-05-02T06:33:06.430Z,787.50
2019-05-02T06:34:07.119Z,922.50
2019-05-02T06:35:06.406Z,1614.38
2019-05-02T06:36:06.394Z,1485.00
2019-05-02T06:37:08.267Z,1507.50
2019-05-02T06:38:07.370Z,1012.50
2019-05-02T06:39:06.382Z,1361.25
2019-05-02T06:40:08.155Z,1006.88
2019-05-02T06:41:06.336Z,1704.38
2019-05-02T06:42:06.324Z,1884.38
2019-05-02T06:43:09.649Z,1974.38
2019-05-02T06:44:06.302Z,1935.00
2019-05-02T06:45:06.290Z,1597.50
2019-05-02T06:46:15.885Z,1884.38
2019-05-02T06:47:07.265Z,1490.62
2019-05-02T06:48:06.258Z,1946.25
2019-05-02T06:49:06.313Z,1456.88
2019-05-02T06:50:06.235Z,1698.75
2019-05-02T06:51:10.951Z,1192.50
2019-05-02T06:52:07.212Z,1642.50
2019-05-02T06:53:09.620Z,2120.62
2019-05-02T06:54:06.189Z,1895.62
2019-05-02T06:55:06.387Z,1333.12
2019-05-02T06:56:08.022Z,1209.38
2019-05-02T06:57:07.155Z,1293.75
2019-05-02T06:58:08.130Z,1051.88
2019-05-02T06:59:06.130Z,1192.50
2019-05-02T07:00:06.725Z,1164.38
2019-05-02T07:01:06.192Z,973.12
2019-05-02T07:02:06.096Z,1029.38
2019-05-02T07:03:10.158Z,1130.62
2019-05-02T07:04:07.077Z,1063.12
2019-05-02T07:05:06.063Z,1113.75
2019-05-02T07:06:07.638Z,1141.88
2019-05-02T07:07:06.326Z,1265.62
2019-05-02T07:08:11.201Z,1417.50
2019-05-02T07:09:07.141Z,1372.50
2019-05-02T07:10:07.505Z,1305.00
2019-05-02T07:11:05.994Z,1445.62
2019-05-02T07:12:09.875Z,1445.62
2019-05-02T07:13:10.724Z,1243.12
2019-05-02T07:14:13.195Z,1074.38
2019-05-02T07:15:08.354Z,1170.00
2019-05-02T07:16:10.564Z,1344.38
2019-05-02T07:17:06.926Z,1558.12
2019-05-02T07:18:10.686Z,1631.25
2019-05-02T07:19:06.965Z,1423.12
2019-05-02T07:20:05.941Z,1361.25
2019-05-02T07:21:05.880Z,1383.75
2019-05-02T07:22:05.870Z,1479.38
2019-05-02T07:23:10.540Z,1468.12
2019-05-02T07:24:06.845Z,1485.00
2019-05-02T07:25:06.974Z,1507.50
2019-05-02T07:26:05.826Z,1546.88
2019-05-02T07:27:05.810Z,1546.88
2019-05-02T07:28:09.520Z,1440.00
2019-05-02T07:29:05.787Z,1788.75
2019-05-02T07:30:05.785Z,1794.38
2019-05-02T07:31:06.512Z,1614.38
2019-05-02T07:32:06.752Z,1310.62
2019-05-02T07:33:05.742Z,1125.00
2019-05-02T07:34:08.132Z,1170.00
2019-05-02T07:35:06.724Z,1305.00
2019-05-02T07:36:05.720Z,1462.50
2019-05-02T07:37:08.346Z,1417.50
2019-05-02T07:38:06.687Z,1535.62
2019-05-02T07:39:06.414Z,1828.12
2019-05-02T07:40:05.666Z,1963.12
2019-05-02T07:41:05.649Z,1726.88
2019-05-02T07:42:07.697Z,1333.12
2019-05-02T07:43:05.695Z,1136.25
2019-05-02T07:44:05.619Z,1327.50
2019-05-02T07:45:09.512Z,1423.12
2019-05-02T07:46:06.591Z,1383.75
2019-05-02T07:47:05.595Z,1254.38
2019-05-02T07:48:05.574Z,1395.00
2019-05-02T07:49:05.624Z,1614.38
2019-05-02T07:50:10.397Z,1603.12
2019-05-02T07:51:06.550Z,1546.88
2019-05-02T07:52:05.578Z,1462.50
2019-05-02T07:53:09.516Z,1321.88
2019-05-02T07:54:06.568Z,1310.62
2019-05-02T07:55:07.381Z,1333.12
2019-05-02T07:56:05.487Z,1389.38
2019-05-02T07:57:05.471Z,1321.88
2019-05-02T07:58:07.005Z,1327.50
2019-05-02T07:59:05.448Z,1344.38
2019-05-02T08:00:05.516Z,1378.12
2019-05-02T08:01:08.200Z,1395.00
2019-05-02T08:02:06.410Z,1372.50
2019-05-02T08:03:05.408Z,1288.12
2019-05-02T08:04:11.104Z,1378.12
2019-05-02T08:05:08.831Z,1361.25
2019-05-02T08:06:05.371Z,1338.75
2019-05-02T08:07:05.356Z,1355.62
2019-05-02T08:08:05.351Z,1400.62
2019-05-02T08:09:07.060Z,1434.38
2019-05-02T08:10:05.324Z,1321.88
2019-05-02T08:11:05.529Z,1383.75
2019-05-02T08:12:05.296Z,1462.50
2019-05-02T08:13:05.284Z,1451.25
2019-05-02T08:14:05.273Z,1524.38
2019-05-02T08:15:07.462Z,1513.12
2019-05-02T08:16:06.326Z,1501.88
2019-05-02T08:17:06.207Z,1507.50
2019-05-02T08:18:06.232Z,1468.12
2019-05-02T08:19:05.731Z,1518.75
2019-05-02T08:20:08.406Z,1541.25
2019-05-02T08:21:05.196Z,1411.88
2019-05-02T08:22:12.981Z,1468.12
2019-05-02T08:23:06.171Z,1468.12
2019-05-02T08:24:05.163Z,1445.62
2019-05-02T08:25:10.543Z,1479.38
2019-05-02T08:26:06.140Z,1620.00
2019-05-02T08:27:05.129Z,1670.62
2019-05-02T08:28:09.913Z,1743.75
2019-05-02T08:29:06.105Z,1687.50
2019-05-02T08:30:05.887Z,1653.75
2019-05-02T08:31:05.085Z,1361.25
2019-05-02T08:32:05.072Z,1575.00
2019-05-02T08:33:05.060Z,1777.50
2019-05-02T08:34:14.148Z,1468.12
2019-05-02T08:35:06.036Z,1209.38
2019-05-02T08:36:05.027Z,1428.75
2019-05-02T08:37:05.098Z,1490.62
2019-05-02T08:38:05.003Z,1563.75
2019-05-02T08:39:04.994Z,1591.88
2019-05-02T08:40:10.000Z,1552.50
2019-05-02T08:41:05.974Z,1440.00
2019-05-02T08:42:04.958Z,1428.75
2019-05-02T08:43:09.412Z,1445.62
2019-05-02T08:44:05.935Z,1434.38
2019-05-02T08:45:04.925Z,1434.38
2019-05-02T08:46:09.344Z,1456.88
2019-05-02T08:47:17.819Z,1546.88
2019-05-02T08:48:06.552Z,1563.75
2019-05-02T08:49:04.880Z,1524.38
2019-05-02T08:50:07.620Z,1513.12
2019-05-02T08:51:04.856Z,1400.62
2019-05-02T08:52:04.916Z,1490.62
2019-05-02T08:53:04.831Z,1507.50
2019-05-02T08:54:04.823Z,1541.25
2019-05-02T08:55:09.759Z,1552.50
2019-05-02T08:56:05.798Z,1575.00
2019-05-02T08:57:04.785Z,1530.00
2019-05-02T08:58:06.514Z,1541.25
2019-05-02T08:59:05.764Z,1518.75
2019-05-02T09:00:04.754Z,1513.12
2019-05-02T09:01:09.291Z,1563.75
2019-05-02T09:02:05.729Z,1541.25
2019-05-02T09:03:04.868Z,1569.38
2019-05-02T09:04:04.781Z,1642.50
2019-05-02T09:05:04.927Z,2036.25
2019-05-02T09:06:06.173Z,3211.88
2019-05-02T09:07:04.709Z,4100.62
2019-05-02T09:08:04.673Z,4033.12
2019-05-02T09:09:04.651Z,3937.50
2019-05-02T09:10:05.824Z,4072.50
2019-05-02T09:11:04.628Z,4072.50
2019-05-02T09:12:12.313Z,4005.00
2019-05-02T09:13:05.605Z,4100.62
2019-05-02T09:14:04.597Z,4111.88
2019-05-02T09:15:04.593Z,3960.00
2019-05-02T09:16:06.022Z,4224.38
2019-05-02T09:17:08.525Z,4224.38
2019-05-02T09:18:05.550Z,4370.62
2019-05-02T09:19:04.538Z,4556.25
2019-05-02T09:20:10.652Z,4426.88
2019-05-02T09:21:05.581Z,4426.88
2019-05-02T09:22:07.605Z,4050.00
2019-05-02T09:23:05.490Z,4038.75
2019-05-02T09:24:08.480Z,4365.00
2019-05-02T09:25:05.520Z,4567.50
2019-05-02T09:26:04.463Z,4511.25
2019-05-02T09:27:04.661Z,4460.62
2019-05-02T09:28:04.459Z,4410.00
2019-05-02T09:29:05.510Z,4545.00
2019-05-02T09:30:04.413Z,4550.62
2019-05-02T09:31:06.608Z,4410.00
2019-05-02T09:32:04.397Z,4010.62
2019-05-02T09:33:06.516Z,4179.38
2019-05-02T09:34:04.379Z,4185.00
2019-05-02T09:35:06.129Z,4376.25
2019-05-02T09:36:04.370Z,4449.38
2019-05-02T09:37:04.336Z,4533.75
2019-05-02T09:38:04.371Z,4370.62
2019-05-02T09:39:04.701Z,4235.62
2019-05-02T09:40:07.008Z,4657.50
2019-05-02T09:41:16.144Z,4651.88
2019-05-02T09:42:06.771Z,4713.75
2019-05-02T09:43:05.268Z,4815.00
2019-05-02T09:44:04.256Z,4713.75
2019-05-02T09:45:04.323Z,4770.00
2019-05-02T09:46:07.350Z,4663.12
2019-05-02T09:47:05.224Z,4657.50
2019-05-02T09:48:07.731Z,4719.38
2019-05-02T09:49:09.676Z,4708.12
2019-05-02T09:50:05.562Z,4955.62
2019-05-02T09:51:11.607Z,4921.88
2019-05-02T09:52:05.194Z,4905.00
2019-05-02T09:53:04.158Z,4888.12
2019-05-02T09:54:06.342Z,4786.88
2019-05-02T09:55:04.134Z,4590.00
2019-05-02T09:56:04.334Z,4578.75
2019-05-02T09:57:04.113Z,4741.88
2019-05-02T09:58:04.105Z,5000.62
2019-05-02T09:59:23.290Z,4995.00
2019-05-02T10:00:05.076Z,4843.12
2019-05-02T10:01:04.067Z,4831.88
2019-05-02T10:02:04.124Z,4848.75
2019-05-02T10:03:04.046Z,4764.38
2019-05-02T10:04:04.041Z,4820.62
2019-05-02T10:05:04.033Z,4848.75
2019-05-02T10:06:08.086Z,5051.25
2019-05-02T10:07:04.009Z,5175.00
2019-05-02T10:08:06.892Z,5169.38
2019-05-02T10:09:04.979Z,5040.00
2019-05-02T10:10:06.520Z,4809.38
2019-05-02T10:11:03.960Z,4477.50
2019-05-02T10:12:03.943Z,4584.38
2019-05-02T10:13:03.932Z,4696.88
2019-05-02T10:14:03.986Z,5068.12
2019-05-02T10:15:03.932Z,5090.62
2019-05-02T10:16:03.922Z,5101.88
2019-05-02T10:17:07.154Z,5051.25
2019-05-02T10:18:11.076Z,4995.00
2019-05-02T10:19:09.451Z,5130.00
2019-05-02T10:20:04.857Z,5101.88
2019-05-02T10:21:07.915Z,5090.62
2019-05-02T10:22:04.833Z,5152.50
2019-05-02T10:23:03.822Z,5163.75
2019-05-02T10:24:03.913Z,5118.75
2019-05-02T10:25:03.867Z,5366.25
2019-05-02T10:26:03.866Z,5270.62
2019-05-02T10:27:08.372Z,5203.12
2019-05-02T10:28:03.766Z,5113.12
2019-05-02T10:29:03.756Z,4533.75
2019-05-02T10:30:11.799Z,4741.88
2019-05-02T10:31:04.799Z,5006.25
2019-05-02T10:32:07.595Z,5490.00
2019-05-02T10:33:04.712Z,5450.62
2019-05-02T10:34:03.701Z,5186.25
2019-05-02T10:35:03.692Z,5113.12
2019-05-02T10:36:03.680Z,5135.62
2019-05-02T10:37:03.878Z,5169.38
2019-05-02T10:38:03.658Z,5315.62
2019-05-02T10:39:03.651Z,5433.75
2019-05-02T10:40:07.914Z,5467.50
2019-05-02T10:41:04.949Z,5388.75
2019-05-02T10:42:03.618Z,5456.25
2019-05-02T10:43:03.669Z,5355.00
2019-05-02T10:44:03.591Z,5006.25
2019-05-02T10:45:07.455Z,5208.75
2019-05-02T10:46:04.572Z,5591.25
2019-05-02T10:47:03.560Z,5681.25
2019-05-02T10:48:03.548Z,5681.25
2019-05-02T10:49:03.606Z,5518.12
2019-05-02T10:50:03.525Z,5338.12
2019-05-02T10:51:03.516Z,5169.38
2019-05-02T10:52:03.506Z,5040.00
2019-05-02T10:53:11.098Z,5450.62
2019-05-02T10:54:04.551Z,5506.88
2019-05-02T10:55:03.493Z,5113.12
2019-05-02T10:56:03.460Z,4505.62
2019-05-02T10:57:03.452Z,4117.50
2019-05-02T10:58:03.448Z,5270.62
2019-05-02T10:59:03.425Z,6120.00
2019-05-02T11:00:03.481Z,5580.00
2019-05-02T11:01:03.405Z,3825.00
2019-05-02T11:02:03.425Z,5180.62
2019-05-02T11:03:03.383Z,5737.50
2019-05-02T11:04:03.374Z,5591.25
2019-05-02T11:05:03.361Z,5473.12
2019-05-02T11:06:07.508Z,5478.75
2019-05-02T11:07:03.363Z,5371.88
2019-05-02T11:08:06.169Z,5214.38
2019-05-02T11:09:06.188Z,5310.00
2019-05-02T11:10:06.791Z,5439.38
2019-05-02T11:11:06.140Z,5523.75
2019-05-02T11:12:03.495Z,5439.38
2019-05-02T11:13:03.275Z,5017.50
2019-05-02T11:14:05.750Z,5135.62
2019-05-02T11:15:03.253Z,5304.38
2019-05-02T11:16:03.243Z,5248.12
2019-05-02T11:17:03.240Z,5130.00
2019-05-02T11:18:03.286Z,5175.00
2019-05-02T11:19:03.211Z,5310.00
2019-05-02T11:20:03.199Z,5433.75
2019-05-02T11:21:07.259Z,5473.12
2019-05-02T11:22:04.179Z,5439.38
2019-05-02T11:23:03.167Z,5563.12
2019-05-02T11:24:03.253Z,5743.12
2019-05-02T11:25:03.146Z,5990.62
2019-05-02T11:26:03.135Z,5895.00
2019-05-02T11:27:03.124Z,5698.12
2019-05-02T11:28:07.079Z,5760.00
2019-05-02T11:29:03.248Z,5613.75
2019-05-02T11:30:03.178Z,5422.50
2019-05-02T11:31:06.860Z,5653.12
2019-05-02T11:32:04.069Z,5653.12
2019-05-02T11:33:03.260Z,5630.62
2019-05-02T11:34:03.054Z,5405.62
2019-05-02T11:35:03.142Z,5613.75
2019-05-02T11:36:03.090Z,5613.75
2019-05-02T11:37:03.016Z,5596.88
2019-05-02T11:38:03.109Z,5546.25
2019-05-02T11:39:13.244Z,5574.38
2019-05-02T11:40:06.195Z,5473.12
2019-05-02T11:41:02.973Z,5506.88
2019-05-02T11:42:03.030Z,5641.88
2019-05-02T11:43:06.642Z,5506.88
2019-05-02T11:44:03.127Z,5641.88
2019-05-02T11:45:02.934Z,4320.00
2019-05-02T11:46:07.218Z,3903.75
2019-05-02T11:47:02.910Z,5203.12
2019-05-02T11:48:09.359Z,4275.00
2019-05-02T11:49:03.885Z,5186.25
2019-05-02T11:50:02.876Z,5585.62
2019-05-02T11:51:07.257Z,5355.00
2019-05-02T11:52:04.678Z,2025.00
2019-05-02T11:53:03.006Z,5810.62
2019-05-02T11:54:05.216Z,5670.00
2019-05-02T11:55:03.820Z,5518.12
2019-05-02T11:56:07.243Z,5445.00
2019-05-02T11:57:02.802Z,5771.25
2019-05-02T11:58:08.334Z,5557.50
2019-05-02T11:59:03.845Z,2098.12
2019-05-02T12:00:04.930Z,5563.12
2019-05-02T12:01:05.404Z,5664.38
2019-05-02T12:02:02.838Z,1957.50
2019-05-02T12:03:02.736Z,2013.75
2019-05-02T12:04:03.090Z,1783.12
2019-05-02T12:05:02.781Z,1648.12
2019-05-02T12:06:06.738Z,3526.88
2019-05-02T12:07:04.862Z,4612.50
2019-05-02T12:08:07.801Z,4381.88
2019-05-02T12:09:03.669Z,4072.50
2019-05-02T12:10:04.666Z,5073.75
2019-05-02T12:11:03.884Z,3791.25
2019-05-02T12:12:02.714Z,5281.88
2019-05-02T12:13:06.486Z,5512.50
2019-05-02T12:14:03.658Z,5585.62
2019-05-02T12:15:02.652Z,2210.62
2019-05-02T12:16:02.789Z,2086.88
2019-05-02T12:17:02.733Z,2621.25
2019-05-02T12:18:02.597Z,2368.12
2019-05-02T12:19:11.372Z,2120.62
2019-05-02T12:20:03.554Z,2356.88
2019-05-02T12:21:02.753Z,1946.25
2019-05-02T12:22:02.781Z,1811.25
2019-05-02T12:23:02.594Z,2013.75
2019-05-02T12:24:02.539Z,2317.50
2019-05-02T12:25:02.986Z,2070.00
2019-05-02T12:26:02.846Z,1816.88
2019-05-02T12:27:02.633Z,1738.12
2019-05-02T12:28:02.486Z,1659.38
2019-05-02T12:29:02.784Z,1771.88
2019-05-02T12:30:03.290Z,2283.75
2019-05-02T12:31:02.884Z,5073.75